createdAt,value
2022-12-11T00:00:55.252Z,98264.94
2022-12-11T00:03:41.668Z,98251.69
2022-12-11T00:06:10.675Z,98248.69
2022-12-11T00:08:38.438Z,98247.66
2022-12-11T00:11:08.270Z,98242.09
2022-12-11T00:13:35.676Z,98240.44
2022-12-11T00:16:02.561Z,98228.88
2022-12-11T00:18:29.591Z,98242.84
2022-12-11T00:21:01.481Z,98238.66
2022-12-11T00:23:28.822Z,98232.06
2022-12-11T00:25:55.560Z,98231.53
2022-12-11T00:28:22.623Z,98233.78
2022-12-11T00:30:50.028Z,98227.09
2022-12-11T00:33:17.564Z,98239.84
2022-12-11T00:35:47.044Z,98238.59
2022-12-11T00:38:16.843Z,98237.84
2022-12-11T00:40:44.266Z,98237.31
2022-12-11T00:43:11.685Z,98228.31
2022-12-11T00:45:41.094Z,98229.06
2022-12-11T00:48:09.040Z,98224.50
2022-12-11T00:50:36.431Z,98217.72
2022-12-11T00:53:05.077Z,98224.97
2022-12-11T00:55:36.071Z,98231.84
2022-12-11T00:58:03.203Z,98234.44
2022-12-11T01:00:29.973Z,98227.59
2022-12-11T01:02:57.136Z,98222.75
2022-12-11T01:05:23.929Z,98233.81
2022-12-11T01:07:51.072Z,98226.41
2022-12-11T01:10:26.964Z,98217.47
2022-12-11T01:12:57.281Z,98225.13
2022-12-11T01:15:29.144Z,98240.06
2022-12-11T01:17:56.881Z,98232.91
2022-12-11T01:20:25.403Z,98243.22
2022-12-11T01:22:54.966Z,98235.31
2022-12-11T01:25:22.355Z,98248.50
2022-12-11T01:27:53.660Z,98241.25
2022-12-11T01:30:22.491Z,98240.63
2022-12-11T01:32:49.927Z,98246.00
2022-12-11T01:35:17.712Z,98244.06
2022-12-11T01:37:45.743Z,98247.97
2022-12-11T01:40:15.941Z,98256.88
2022-12-11T01:42:43.043Z,98253.53
2022-12-11T01:45:40.365Z,98244.53
2022-12-11T01:48:17.734Z,98248.41
2022-12-11T01:50:54.673Z,98254.47
2022-12-11T01:53:29.810Z,98251.38
2022-12-11T01:55:58.751Z,98254.06
2022-12-11T01:58:33.499Z,98264.47
2022-12-11T02:01:02.643Z,98273.03
2022-12-11T02:03:29.670Z,98261.56
2022-12-11T02:06:00.399Z,98274.75
2022-12-11T02:08:27.490Z,98274.47
2022-12-11T02:10:54.247Z,98270.00
2022-12-11T02:13:51.245Z,98268.59
2022-12-11T02:16:21.021Z,98268.59
2022-12-11T02:19:02.917Z,98266.59
2022-12-11T02:21:41.159Z,98272.22
2022-12-11T02:24:32.290Z,98280.28
2022-12-11T02:26:58.991Z,98274.19
2022-12-11T02:30:08.633Z,98270.25
2022-12-11T02:32:41.082Z,98258.59
2022-12-11T02:35:15.291Z,98272.50
2022-12-11T02:37:45.093Z,98279.47
2022-12-11T02:40:16.922Z,98255.25
2022-12-11T02:42:47.596Z,98260.88
2022-12-11T02:45:16.770Z,98255.63
2022-12-11T02:47:46.182Z,98264.00
2022-12-11T02:50:18.173Z,98266.59
2022-12-11T02:52:48.302Z,98257.19
2022-12-11T02:55:16.750Z,98259.16
2022-12-11T02:57:56.501Z,98269.78
2022-12-11T03:00:23.631Z,98250.56
2022-12-11T03:02:50.379Z,98257.72
2022-12-11T03:05:17.572Z,98257.03
2022-12-11T03:07:45.126Z,98254.09
2022-12-11T03:10:15.123Z,98245.31
2022-12-11T03:12:46.971Z,98241.38
2022-12-11T03:15:19.985Z,98239.53
2022-12-11T03:18:05.375Z,98239.09
2022-12-11T03:20:35.662Z,98244.22
2022-12-11T03:23:29.697Z,98240.72
2022-12-11T03:26:01.311Z,98236.63
2022-12-11T03:28:48.952Z,98239.28
2022-12-11T03:31:26.266Z,98252.94
2022-12-11T03:33:56.358Z,98246.66
2022-12-11T03:36:33.502Z,98238.88
2022-12-11T03:39:07.789Z,98246.75
2022-12-11T03:41:37.574Z,98237.53
2022-12-11T03:44:04.510Z,98238.72
2022-12-11T03:46:36.690Z,98239.47
2022-12-11T03:49:11.963Z,98247.91
2022-12-11T03:51:40.442Z,98251.19
2022-12-11T03:54:07.567Z,98243.06
2022-12-11T03:56:38.386Z,98242.47
2022-12-11T03:59:05.175Z,98240.94
2022-12-11T04:01:32.265Z,98234.69
2022-12-11T04:04:01.771Z,98235.84
2022-12-11T04:06:28.810Z,98252.13
2022-12-11T04:08:55.515Z,98252.69
2022-12-11T04:11:34.569Z,98250.50
2022-12-11T04:14:32.200Z,98254.19
2022-12-11T04:17:00.663Z,98259.31
2022-12-11T04:19:46.232Z,98254.25
2022-12-11T04:22:33.839Z,98253.19
2022-12-11T04:25:01.686Z,98254.22
2022-12-11T04:27:47.600Z,98263.47
2022-12-11T04:30:20.466Z,98268.84
2022-12-11T04:32:47.767Z,98273.22
2022-12-11T04:35:15.173Z,98274.19
2022-12-11T04:37:42.486Z,98281.66
2022-12-11T04:40:12.879Z,98273.78
2022-12-11T04:42:40.286Z,98281.84
2022-12-11T04:45:13.125Z,98288.28
2022-12-11T04:47:41.230Z,98296.41
2022-12-11T04:50:10.543Z,98316.25
2022-12-11T04:52:37.629Z,98306.13
2022-12-11T04:55:06.358Z,98319.09
2022-12-11T04:57:33.468Z,98309.97
2022-12-11T05:00:00.416Z,98318.50
2022-12-11T05:02:27.726Z,98310.91
2022-12-11T05:04:54.573Z,98314.25
2022-12-11T05:07:21.611Z,98320.50
2022-12-11T05:09:48.493Z,98328.28
2022-12-11T05:12:15.530Z,98338.69
2022-12-11T05:14:45.157Z,98334.09
2022-12-11T05:17:12.228Z,98329.91
2022-12-11T05:19:38.976Z,98336.53
2022-12-11T05:22:05.986Z,98335.44
2022-12-11T05:24:32.737Z,98338.63
2022-12-11T05:26:59.755Z,98337.81
2022-12-11T05:29:26.589Z,98342.47
2022-12-11T05:31:53.635Z,98351.09
2022-12-11T05:34:20.451Z,98334.69
2022-12-11T05:36:47.515Z,98346.06
2022-12-11T05:39:14.288Z,98337.50
2022-12-11T05:41:41.371Z,98346.13
2022-12-11T05:44:12.279Z,98335.84
2022-12-11T05:46:40.010Z,98348.66
2022-12-11T05:49:06.902Z,98336.44
2022-12-11T05:51:34.801Z,98326.81
2022-12-11T05:54:02.334Z,98323.69
2022-12-11T05:56:32.935Z,98330.66
2022-12-11T05:59:01.322Z,98336.84
2022-12-11T06:01:43.082Z,98342.97
2022-12-11T06:04:11.930Z,98351.00
2022-12-11T06:06:40.401Z,98351.66
2022-12-11T06:09:07.625Z,98360.13
2022-12-11T06:11:35.869Z,98361.81
2022-12-11T06:14:03.865Z,98369.59
2022-12-11T06:16:31.364Z,98377.28
2022-12-11T06:18:58.823Z,98373.94
2022-12-11T06:21:29.442Z,98388.16
2022-12-11T06:23:58.015Z,98402.41
2022-12-11T06:26:26.647Z,98395.03
2022-12-11T06:28:53.506Z,98402.50
2022-12-11T06:31:20.735Z,98406.13
2022-12-11T06:33:47.615Z,98404.34
2022-12-11T06:36:17.670Z,98419.00
2022-12-11T06:38:45.163Z,98419.75
2022-12-11T06:41:12.914Z,98423.03
2022-12-11T06:43:40.945Z,98422.25
2022-12-11T06:46:10.515Z,98425.03
2022-12-11T06:48:37.592Z,98427.84
2022-12-11T06:51:13.600Z,98429.53
2022-12-11T06:53:41.078Z,98446.81
2022-12-11T06:56:12.179Z,98457.50
2022-12-11T06:58:41.045Z,98461.91
2022-12-11T07:01:22.826Z,98464.38
2022-12-11T07:03:49.909Z,98462.69
2022-12-11T07:06:17.036Z,98470.19
2022-12-11T07:08:44.229Z,98467.59
2022-12-11T07:11:13.932Z,98474.44
2022-12-11T07:13:44.313Z,98490.47
2022-12-11T07:16:12.816Z,98481.16
2022-12-11T07:18:46.676Z,98475.94
2022-12-11T07:21:14.332Z,98487.88
2022-12-11T07:23:41.412Z,98487.88
2022-12-11T07:26:11.685Z,98484.03
2022-12-11T07:28:38.878Z,98498.88
2022-12-11T07:31:07.799Z,98503.28
2022-12-11T07:33:34.985Z,98507.41
2022-12-11T07:36:04.843Z,98497.38
2022-12-11T07:38:31.946Z,98505.69
2022-12-11T07:41:07.382Z,98510.44
2022-12-11T07:43:35.374Z,98509.53
2022-12-11T07:46:09.267Z,98520.03
2022-12-11T07:48:39.348Z,98532.94
2022-12-11T07:51:09.583Z,98523.69
2022-12-11T07:53:36.411Z,98514.97
2022-12-11T07:56:04.056Z,98523.56
2022-12-11T07:58:31.035Z,98530.56
2022-12-11T08:00:58.342Z,98555.88
2022-12-11T08:03:25.374Z,98571.47
2022-12-11T08:05:53.473Z,98555.28
2022-12-11T08:08:20.470Z,98556.72
2022-12-11T08:10:47.546Z,98563.44
2022-12-11T08:13:14.494Z,98569.09
2022-12-11T08:15:41.764Z,98565.78
2022-12-11T08:18:08.513Z,98569.41
2022-12-11T08:20:38.159Z,98570.38
2022-12-11T08:23:05.236Z,98580.84
2022-12-11T08:25:32.278Z,98574.94
2022-12-11T08:27:59.010Z,98580.72
2022-12-11T08:30:26.007Z,98577.19
2022-12-11T08:32:52.923Z,98586.59
2022-12-11T08:35:20.026Z,98585.56
2022-12-11T08:37:46.816Z,98591.06
2022-12-11T08:40:14.219Z,98583.75
2022-12-11T08:42:41.182Z,98590.78
2022-12-11T08:45:08.941Z,98607.22
2022-12-11T08:47:36.702Z,98621.69
2022-12-11T08:50:04.262Z,98622.91
2022-12-11T08:52:31.550Z,98613.03
2022-12-11T08:54:58.587Z,98623.19
2022-12-11T08:57:25.362Z,98639.56
2022-12-11T08:59:52.378Z,98642.84
2022-12-11T09:02:19.155Z,98654.31
2022-12-11T09:04:46.352Z,98653.59
2022-12-11T09:07:13.085Z,98650.09
2022-12-11T09:09:40.123Z,98646.22
2022-12-11T09:12:06.935Z,98644.59
2022-12-11T09:14:34.192Z,98662.16
2022-12-11T09:17:00.966Z,98656.06
2022-12-11T09:19:32.201Z,98642.91
2022-12-11T09:21:59.398Z,98646.25
2022-12-11T09:24:26.384Z,98650.78
2022-12-11T09:26:54.605Z,98643.53
2022-12-11T09:29:21.677Z,98643.63
2022-12-11T09:31:49.549Z,98655.81
2022-12-11T09:34:16.605Z,98653.31
2022-12-11T09:36:44.271Z,98650.25
2022-12-11T09:39:13.590Z,98640.75
2022-12-11T09:41:55.633Z,98646.88
2022-12-11T09:44:51.102Z,98649.78
2022-12-11T09:47:42.890Z,98661.84
2022-12-11T09:50:10.048Z,98646.44
2022-12-11T09:52:40.465Z,98658.41
2022-12-11T09:55:16.776Z,98661.09
2022-12-11T09:58:02.379Z,98651.31
2022-12-11T10:00:38.501Z,98645.03
2022-12-11T10:03:43.006Z,98642.06
2022-12-11T10:06:28.315Z,98639.78
2022-12-11T10:09:18.105Z,98632.13
2022-12-11T10:11:53.001Z,98625.78
2022-12-11T10:14:59.837Z,98617.81
2022-12-11T10:17:34.353Z,98618.34
2022-12-11T10:20:36.533Z,98631.28
2022-12-11T10:23:07.397Z,98651.59
2022-12-11T10:25:40.087Z,98647.19
2022-12-11T10:28:21.266Z,98643.19
2022-12-11T10:30:49.659Z,98658.78
2022-12-11T10:33:50.049Z,98665.84
2022-12-11T10:36:25.694Z,98657.63
2022-12-11T10:38:52.720Z,98650.78
2022-12-11T10:41:41.878Z,98645.81
2022-12-11T10:44:23.918Z,98659.78
2022-12-11T10:47:14.042Z,98666.44
2022-12-11T10:49:59.628Z,98671.72
2022-12-11T10:52:38.158Z,98694.19
2022-12-11T10:55:20.806Z,98697.94
2022-12-11T10:57:57.104Z,98695.13
2022-12-11T11:00:33.020Z,98695.56
2022-12-11T11:03:01.482Z,98687.94
2022-12-11T11:05:34.905Z,98682.78
2022-12-11T11:08:22.745Z,98697.03
2022-12-11T11:10:57.958Z,98692.59
2022-12-11T11:13:27.679Z,98693.91
2022-12-11T11:16:11.806Z,98693.72
2022-12-11T11:18:41.160Z,98689.16
2022-12-11T11:21:16.949Z,98681.88
2022-12-11T11:23:47.289Z,98683.09
2022-12-11T11:26:18.488Z,98674.06
2022-12-11T11:28:55.752Z,98668.13
2022-12-11T11:31:35.561Z,98670.31
2022-12-11T11:34:06.817Z,98669.75
2022-12-11T11:36:37.808Z,98681.91
2022-12-11T11:39:34.139Z,98691.78
2022-12-11T11:42:47.464Z,98698.94
2022-12-11T11:45:30.491Z,98708.03
2022-12-11T11:48:24.508Z,98707.19
2022-12-11T11:50:53.874Z,98710.25
2022-12-11T11:53:37.452Z,98715.91
2022-12-11T11:56:25.656Z,98720.25
2022-12-11T11:59:11.482Z,98723.78
2022-12-11T12:01:40.927Z,98719.28
2022-12-11T12:04:08.342Z,98727.66
2022-12-11T12:06:57.287Z,98738.38
2022-12-11T12:09:42.439Z,98733.66
2022-12-11T12:12:45.415Z,98735.41
2022-12-11T12:15:38.409Z,98737.22
2022-12-11T12:18:21.346Z,98743.97
2022-12-11T12:21:09.404Z,98743.75
2022-12-11T12:23:59.034Z,98747.25
2022-12-11T12:26:34.067Z,98756.66
2022-12-11T12:29:27.959Z,98750.91
2022-12-11T12:31:55.411Z,98742.44
2022-12-11T12:34:31.534Z,98730.34
2022-12-11T12:37:47.926Z,98735.16
2022-12-11T12:40:17.651Z,98739.97
2022-12-11T12:42:58.040Z,98733.09
2022-12-11T12:45:57.398Z,98740.69
2022-12-11T12:48:26.144Z,98741.91
2022-12-11T12:50:53.401Z,98747.56
2022-12-11T12:53:25.863Z,98748.69
2022-12-11T12:55:55.538Z,98755.88
2022-12-11T12:58:41.010Z,98763.25
2022-12-11T13:01:21.140Z,98772.50
2022-12-11T13:03:56.189Z,98786.66
2022-12-11T13:06:38.170Z,98785.66
2022-12-11T13:09:17.446Z,98789.25
2022-12-11T13:11:45.811Z,98803.56
2022-12-11T13:14:15.715Z,98797.44
2022-12-11T13:16:45.643Z,98807.69
2022-12-11T13:19:27.807Z,98803.47
2022-12-11T13:22:06.403Z,98800.56
2022-12-11T13:24:34.303Z,98813.66
2022-12-11T13:27:22.085Z,98818.50
2022-12-11T13:29:49.324Z,98819.66
2022-12-11T13:32:18.809Z,98811.28
2022-12-11T13:35:05.669Z,98817.63
2022-12-11T13:37:41.510Z,98825.41
2022-12-11T13:40:40.083Z,98827.72
2022-12-11T13:43:25.736Z,98826.97
2022-12-11T13:45:56.593Z,98838.50
2022-12-11T13:48:29.001Z,98839.88
2022-12-11T13:50:57.425Z,98843.16
2022-12-11T13:53:24.265Z,98841.31
2022-12-11T13:56:03.968Z,98834.97
2022-12-11T13:58:35.113Z,98828.41
2022-12-11T14:01:07.973Z,98838.63
2022-12-11T14:03:35.756Z,98851.19
2022-12-11T14:06:04.146Z,98852.84
2022-12-11T14:08:40.245Z,98863.25
2022-12-11T14:11:10.414Z,98861.66
2022-12-11T14:13:41.894Z,98862.00
2022-12-11T14:16:08.928Z,98871.97
2022-12-11T14:18:37.011Z,98877.88
2022-12-11T14:21:06.459Z,98873.06
2022-12-11T14:23:35.131Z,98885.69
2022-12-11T14:26:04.106Z,98884.03
2022-12-11T14:28:38.027Z,98884.63
2022-12-11T14:31:06.550Z,98893.84
2022-12-11T14:33:38.131Z,98903.34
2022-12-11T14:36:06.623Z,98911.34
2022-12-11T14:38:35.541Z,98914.84
2022-12-11T14:41:16.589Z,98914.94
2022-12-11T14:43:48.017Z,98919.00
2022-12-11T14:46:36.807Z,98910.72
2022-12-11T14:49:17.949Z,98916.63
2022-12-11T14:51:45.710Z,98920.69
2022-12-11T14:54:31.583Z,98921.97
2022-12-11T14:57:00.848Z,98929.81
2022-12-11T14:59:32.162Z,98925.19
2022-12-11T15:02:30.459Z,98915.34
2022-12-11T15:05:19.560Z,98926.94
2022-12-11T15:08:00.273Z,98928.19
2022-12-11T15:10:55.743Z,98936.63
2022-12-11T15:13:24.098Z,98942.03
2022-12-11T15:15:51.412Z,98941.69
2022-12-11T15:18:25.039Z,98963.44
2022-12-11T15:20:58.244Z,98950.75
2022-12-11T15:23:27.743Z,98957.53
2022-12-11T15:26:02.837Z,98951.22
2022-12-11T15:28:38.191Z,98951.38
2022-12-11T15:31:22.350Z,98958.66
2022-12-11T15:33:49.383Z,98956.25
2022-12-11T15:36:25.143Z,98954.84
2022-12-11T15:38:55.430Z,98963.72
2022-12-11T15:41:26.070Z,98960.19
2022-12-11T15:43:59.205Z,98966.00
2022-12-11T15:46:28.850Z,98958.50
2022-12-11T15:48:57.625Z,98960.19
2022-12-11T15:51:27.674Z,98960.41
2022-12-11T15:53:57.735Z,98958.66
2022-12-11T15:56:24.567Z,98968.88
2022-12-11T15:58:54.394Z,98957.00
2022-12-11T16:01:23.095Z,98964.88
2022-12-11T16:03:50.492Z,98972.50
2022-12-11T16:06:20.700Z,98974.13
2022-12-11T16:08:47.758Z,98974.44
2022-12-11T16:11:14.817Z,98976.19
2022-12-11T16:13:43.199Z,98979.53
2022-12-11T16:16:10.247Z,98981.06
2022-12-11T16:18:37.280Z,98997.47
2022-12-11T16:21:06.057Z,98990.41
2022-12-11T16:23:33.076Z,98998.66
2022-12-11T16:26:08.170Z,98997.38
2022-12-11T16:28:37.143Z,98995.72
2022-12-11T16:31:14.964Z,98992.03
2022-12-11T16:33:42.058Z,98995.63
2022-12-11T16:36:16.972Z,98995.88
2022-12-11T16:38:53.766Z,98996.97
2022-12-11T16:41:24.838Z,99006.66
2022-12-11T16:43:54.411Z,99008.25
2022-12-11T16:46:25.223Z,99013.03
2022-12-11T16:48:52.274Z,99017.22
2022-12-11T16:51:19.064Z,99008.44
2022-12-11T16:53:48.725Z,99010.19
2022-12-11T16:56:24.018Z,99011.91
2022-12-11T16:58:51.039Z,99013.34
2022-12-11T17:01:17.833Z,99017.38
2022-12-11T17:03:45.166Z,99013.84
2022-12-11T17:06:14.541Z,99011.69
2022-12-11T17:08:42.787Z,99004.75
2022-12-11T17:11:13.312Z,99007.66
2022-12-11T17:13:40.399Z,99008.00
2022-12-11T17:16:09.598Z,99012.00
2022-12-11T17:18:37.031Z,99002.22
2022-12-11T17:21:08.747Z,99002.88
2022-12-11T17:23:35.968Z,99015.22
2022-12-11T17:26:03.423Z,99010.16
2022-12-11T17:28:31.702Z,99016.13
2022-12-11T17:30:58.649Z,99008.81
2022-12-11T17:33:25.734Z,99018.78
2022-12-11T17:35:52.485Z,99016.28
2022-12-11T17:38:19.533Z,99021.81
2022-12-11T17:40:49.478Z,99025.38
2022-12-11T17:43:16.646Z,99022.03
2022-12-11T17:45:48.870Z,99016.94
2022-12-11T17:48:16.211Z,99018.69
2022-12-11T17:50:44.875Z,99031.66
2022-12-11T17:53:13.386Z,99027.25
2022-12-11T17:55:44.694Z,99021.28
2022-12-11T17:58:17.360Z,99024.78
2022-12-11T18:00:45.950Z,99023.63
2022-12-11T18:03:13.865Z,99017.53
2022-12-11T18:05:42.756Z,99022.88
2022-12-11T18:08:13.962Z,99020.28
2022-12-11T18:10:41.535Z,99022.13
2022-12-11T18:13:08.694Z,99022.97
2022-12-11T18:15:35.835Z,99019.97
2022-12-11T18:18:03.790Z,99036.16
2022-12-11T18:20:32.246Z,99029.28
2022-12-11T18:23:00.424Z,99040.69
2022-12-11T18:25:28.033Z,99034.41
2022-12-11T18:27:55.452Z,99040.22
2022-12-11T18:30:25.013Z,99051.06
2022-12-11T18:32:52.419Z,99046.69
2022-12-11T18:35:19.599Z,99044.94
2022-12-11T18:37:46.798Z,99053.56
2022-12-11T18:40:13.554Z,99066.84
2022-12-11T18:42:40.579Z,99060.00
2022-12-11T18:45:08.019Z,99060.06
2022-12-11T18:47:35.084Z,99067.06
2022-12-11T18:50:07.420Z,99063.19
2022-12-11T18:52:35.289Z,99062.34
2022-12-11T18:55:02.378Z,99066.91
2022-12-11T18:57:29.468Z,99061.81
2022-12-11T18:59:56.317Z,99066.63
2022-12-11T19:02:23.594Z,99070.13
2022-12-11T19:04:50.400Z,99074.56
2022-12-11T19:07:17.433Z,99079.44
2022-12-11T19:09:48.135Z,99078.13
2022-12-11T19:12:15.750Z,99086.75
2022-12-11T19:14:42.528Z,99074.69
2022-12-11T19:17:09.641Z,99074.91
2022-12-11T19:19:36.391Z,99080.94
2022-12-11T19:22:04.223Z,99074.91
2022-12-11T19:24:31.257Z,99089.56
2022-12-11T19:26:58.332Z,99083.59
2022-12-11T19:29:27.648Z,99089.13
2022-12-11T19:31:55.719Z,99080.19
2022-12-11T19:34:23.005Z,99093.25
2022-12-11T19:36:50.431Z,99099.25
2022-12-11T19:39:17.889Z,99088.28
2022-12-11T19:41:45.400Z,99093.97
2022-12-11T19:44:12.482Z,99085.53
2022-12-11T19:46:40.254Z,99092.53
2022-12-11T19:49:07.113Z,99100.84
2022-12-11T19:51:40.148Z,99089.88
2022-12-11T19:54:08.855Z,99104.53
2022-12-11T19:56:36.243Z,99096.00
2022-12-11T19:59:05.969Z,99095.38
2022-12-11T20:01:35.834Z,99097.50
2022-12-11T20:04:10.198Z,99104.34
2022-12-11T20:06:40.006Z,99092.00
2022-12-11T20:09:11.016Z,99093.41
2022-12-11T20:11:39.978Z,99099.16
2022-12-11T20:14:07.058Z,99099.47
2022-12-11T20:17:08.641Z,99106.53
2022-12-11T20:19:20.926Z,99111.91
2022-12-11T20:21:48.144Z,99102.69
2022-12-11T20:24:14.897Z,99113.66
2022-12-11T20:26:41.922Z,99113.88
2022-12-11T20:29:08.833Z,99114.16
2022-12-11T20:31:36.897Z,99116.47
2022-12-11T20:34:04.858Z,99112.47
2022-12-11T20:36:34.649Z,99108.13
2022-12-11T20:39:01.511Z,99117.41
2022-12-11T20:41:29.426Z,99114.72
2022-12-11T20:43:56.553Z,99121.66
2022-12-11T20:46:25.802Z,99122.56
2022-12-11T20:48:54.014Z,99115.16
2022-12-11T20:51:26.076Z,99112.84
2022-12-11T20:53:58.862Z,99117.69
2022-12-11T20:56:30.805Z,99124.81
2022-12-11T20:58:59.156Z,99122.44
2022-12-11T21:01:28.711Z,99124.00
2022-12-11T21:03:55.948Z,99123.06
2022-12-11T21:06:35.059Z,99118.59
2022-12-11T21:09:06.235Z,99121.63
2022-12-11T21:11:33.773Z,99124.19
2022-12-11T21:14:00.605Z,99133.06
2022-12-11T21:16:28.147Z,99138.47
2022-12-11T21:18:56.498Z,99141.19
2022-12-11T21:21:24.044Z,99146.50
2022-12-11T21:23:50.831Z,99158.31
2022-12-11T21:26:19.282Z,99149.66
2022-12-11T21:28:46.111Z,99159.06
2022-12-11T21:31:18.216Z,99164.75
2022-12-11T21:33:46.314Z,99182.94
2022-12-11T21:36:14.731Z,99181.13
2022-12-11T21:38:43.662Z,99181.91
2022-12-11T21:41:16.503Z,99181.06
2022-12-11T21:44:14.627Z,99186.44
2022-12-11T21:46:32.988Z,99188.97
2022-12-11T21:48:59.890Z,99184.22
2022-12-11T21:51:37.664Z,99186.66
2022-12-11T21:54:07.519Z,99184.88
2022-12-11T21:56:37.411Z,99185.97
2022-12-11T21:59:05.013Z,99183.34
2022-12-11T22:01:37.160Z,99182.75
2022-12-11T22:04:05.158Z,99192.25
2022-12-11T22:06:32.454Z,99199.31
2022-12-11T22:08:59.246Z,99192.09
2022-12-11T22:11:29.568Z,99191.34
2022-12-11T22:13:57.604Z,99186.69
2022-12-11T22:16:24.938Z,99194.19
2022-12-11T22:18:51.726Z,99202.88
2022-12-11T22:21:19.328Z,99205.75
2022-12-11T22:23:46.596Z,99209.78
2022-12-11T22:26:23.381Z,99209.78
2022-12-11T22:28:50.906Z,99209.84
2022-12-11T22:31:20.715Z,99198.75
2022-12-11T22:33:50.045Z,99195.75
2022-12-11T22:36:20.745Z,99192.09
2022-12-11T22:38:47.706Z,99203.66
2022-12-11T22:41:23.209Z,99192.41
2022-12-11T22:43:50.542Z,99186.63
2022-12-11T22:46:19.011Z,99179.84
2022-12-11T22:48:45.778Z,99201.31
2022-12-11T22:51:13.235Z,99202.22
2022-12-11T22:53:40.075Z,99204.00
2022-12-11T22:56:09.150Z,99207.50
2022-12-11T22:58:36.409Z,99211.16
2022-12-11T23:01:10.794Z,99204.13
2022-12-11T23:03:37.784Z,99206.59
2022-12-11T23:06:08.036Z,99218.81
2022-12-11T23:08:35.201Z,99216.06
2022-12-11T23:11:02.750Z,99230.06
2022-12-11T23:13:29.507Z,99223.16
2022-12-11T23:15:56.612Z,99227.13
2022-12-11T23:18:23.629Z,99227.88
2022-12-11T23:20:50.794Z,99231.41
2022-12-11T23:23:17.518Z,99225.28
2022-12-11T23:25:44.683Z,99218.16
2022-12-11T23:28:11.430Z,99225.91
2022-12-11T23:30:38.596Z,99224.16
2022-12-11T23:33:06.631Z,99230.22
2022-12-11T23:35:34.014Z,99220.22
2022-12-11T23:38:00.829Z,99217.34
2022-12-11T23:40:27.867Z,99215.63
2022-12-11T23:42:54.619Z,99220.22
2022-12-11T23:45:21.669Z,99224.78
2022-12-11T23:47:48.544Z,99216.63
2022-12-11T23:50:15.591Z,99213.13
2022-12-11T23:52:42.346Z,99213.81
2022-12-11T23:55:11.320Z,99219.75
2022-12-11T23:57:38.330Z,99216.16
